sensor_id;sensor_type;location;lat;lon;timestamp;P1;durP1;ratioP1;P2;durP2;ratioP2
35042;SDS011;21230;51.170;17.024;2023-03-08T00:02:08;17.63;;;10.20;;
35042;SDS011;21230;51.170;17.024;2023-03-08T00:04:34;19.95;;;10.43;;
35042;SDS011;21230;51.170;17.024;2023-03-08T00:07:00;24.77;;;11.55;;
35042;SDS011;21230;51.170;17.024;2023-03-08T00:09:25;16.25;;;9.80;;
35042;SDS011;21230;51.170;17.024;2023-03-08T00:11:51;27.33;;;13.15;;
35042;SDS011;21230;51.170;17.024;2023-03-08T00:14:17;21.00;;;11.27;;
35042;SDS011;21230;51.170;17.024;2023-03-08T00:16:44;20.73;;;10.65;;
35042;SDS011;21230;51.170;17.024;2023-03-08T00:19:10;17.40;;;10.63;;
35042;SDS011;21230;51.170;17.024;2023-03-08T00:21:36;26.13;;;13.25;;
35042;SDS011;21230;51.170;17.024;2023-03-08T00:24:02;19.33;;;11.20;;
35042;SDS011;21230;51.170;17.024;2023-03-08T00:26:28;19.83;;;10.20;;
35042;SDS011;21230;51.170;17.024;2023-03-08T00:28:53;22.92;;;12.60;;
35042;SDS011;21230;51.170;17.024;2023-03-08T00:31:19;25.38;;;11.43;;
35042;SDS011;21230;51.170;17.024;2023-03-08T00:33:46;23.23;;;11.93;;
35042;SDS011;21230;51.170;17.024;2023-03-08T00:36:12;20.10;;;11.23;;
35042;SDS011;21230;51.170;17.024;2023-03-08T00:38:42;26.40;;;11.55;;
35042;SDS011;21230;51.170;17.024;2023-03-08T00:41:08;20.83;;;11.00;;
35042;SDS011;21230;51.170;17.024;2023-03-08T00:43:35;23.15;;;12.25;;
35042;SDS011;21230;51.170;17.024;2023-03-08T00:46:01;21.77;;;11.07;;
35042;SDS011;21230;51.170;17.024;2023-03-08T00:48:26;22.50;;;12.07;;
35042;SDS011;21230;51.170;17.024;2023-03-08T00:50:52;19.60;;;10.68;;
35042;SDS011;21230;51.170;17.024;2023-03-08T00:53:18;27.92;;;13.50;;
35042;SDS011;21230;51.170;17.024;2023-03-08T00:55:48;23.70;;;12.82;;
35042;SDS011;21230;51.170;17.024;2023-03-08T00:58:15;24.83;;;13.13;;
35042;SDS011;21230;51.170;17.024;2023-03-08T01:00:41;25.70;;;14.65;;
35042;SDS011;21230;51.170;17.024;2023-03-08T01:03:07;22.40;;;12.52;;
35042;SDS011;21230;51.170;17.024;2023-03-08T01:05:37;28.17;;;12.18;;
35042;SDS011;21230;51.170;17.024;2023-03-08T01:08:07;22.27;;;12.43;;
35042;SDS011;21230;51.170;17.024;2023-03-08T01:10:33;16.88;;;9.68;;
35042;SDS011;21230;51.170;17.024;2023-03-08T01:12:59;20.85;;;12.30;;
35042;SDS011;21230;51.170;17.024;2023-03-08T01:15:25;23.13;;;11.48;;
35042;SDS011;21230;51.170;17.024;2023-03-08T01:17:51;21.20;;;13.23;;
35042;SDS011;21230;51.170;17.024;2023-03-08T01:20:17;20.58;;;11.13;;
35042;SDS011;21230;51.170;17.024;2023-03-08T01:22:43;20.92;;;12.15;;
35042;SDS011;21230;51.170;17.024;2023-03-08T01:25:09;24.90;;;13.23;;
35042;SDS011;21230;51.170;17.024;2023-03-08T01:27:35;23.77;;;11.57;;
35042;SDS011;21230;51.170;17.024;2023-03-08T01:30:02;20.23;;;10.95;;
35042;SDS011;21230;51.170;17.024;2023-03-08T01:32:28;16.60;;;9.25;;
35042;SDS011;21230;51.170;17.024;2023-03-08T01:34:54;16.58;;;8.65;;
35042;SDS011;21230;51.170;17.024;2023-03-08T01:37:20;17.10;;;8.13;;
35042;SDS011;21230;51.170;17.024;2023-03-08T01:39:46;16.05;;;8.25;;
35042;SDS011;21230;51.170;17.024;2023-03-08T01:42:12;12.40;;;7.15;;
35042;SDS011;21230;51.170;17.024;2023-03-08T01:44:51;22.65;;;8.30;;
35042;SDS011;21230;51.170;17.024;2023-03-08T01:47:20;16.02;;;8.05;;
35042;SDS011;21230;51.170;17.024;2023-03-08T01:52:17;11.50;;;6.47;;
35042;SDS011;21230;51.170;17.024;2023-03-08T01:54:48;13.18;;;6.07;;
35042;SDS011;21230;51.170;17.024;2023-03-08T01:57:34;12.27;;;7.70;;
35042;SDS011;21230;51.170;17.024;2023-03-08T02:00:14;17.95;;;7.32;;
35042;SDS011;21230;51.170;17.024;2023-03-08T02:05:25;16.20;;;6.95;;
35042;SDS011;21230;51.170;17.024;2023-03-08T02:07:53;18.90;;;6.70;;
35042;SDS011;21230;51.170;17.024;2023-03-08T02:10:19;12.25;;;6.10;;
35042;SDS011;21230;51.170;17.024;2023-03-08T02:12:45;11.10;;;6.65;;
35042;SDS011;21230;51.170;17.024;2023-03-08T02:15:13;11.77;;;6.43;;
35042;SDS011;21230;51.170;17.024;2023-03-08T02:17:41;9.80;;;5.18;;
35042;SDS011;21230;51.170;17.024;2023-03-08T02:22:41;8.65;;;6.30;;
35042;SDS011;21230;51.170;17.024;2023-03-08T02:25:18;12.82;;;5.40;;
35042;SDS011;21230;51.170;17.024;2023-03-08T02:27:46;7.07;;;4.53;;
35042;SDS011;21230;51.170;17.024;2023-03-08T02:30:13;4.93;;;3.47;;
35042;SDS011;21230;51.170;17.024;2023-03-08T02:32:43;3.70;;;2.90;;
35042;SDS011;21230;51.170;17.024;2023-03-08T02:35:09;3.65;;;3.03;;
35042;SDS011;21230;51.170;17.024;2023-03-08T02:37:35;4.60;;;2.47;;
35042;SDS011;21230;51.170;17.024;2023-03-08T02:40:01;6.40;;;3.85;;
35042;SDS011;21230;51.170;17.024;2023-03-08T02:42:27;4.20;;;2.88;;
35042;SDS011;21230;51.170;17.024;2023-03-08T02:44:53;10.23;;;3.78;;
35042;SDS011;21230;51.170;17.024;2023-03-08T02:47:18;10.75;;;3.78;;
35042;SDS011;21230;51.170;17.024;2023-03-08T02:49:44;7.50;;;4.32;;
35042;SDS011;21230;51.170;17.024;2023-03-08T02:52:10;6.93;;;3.28;;
35042;SDS011;21230;51.170;17.024;2023-03-08T02:54:36;8.43;;;3.38;;
35042;SDS011;21230;51.170;17.024;2023-03-08T02:57:01;5.97;;;3.25;;
35042;SDS011;21230;51.170;17.024;2023-03-08T02:59:27;5.07;;;3.28;;
35042;SDS011;21230;51.170;17.024;2023-03-08T03:01:54;9.57;;;3.58;;
35042;SDS011;21230;51.170;17.024;2023-03-08T03:04:21;6.03;;;3.22;;
35042;SDS011;21230;51.170;17.024;2023-03-08T03:06:47;6.78;;;3.35;;
35042;SDS011;21230;51.170;17.024;2023-03-08T03:09:13;18.45;;;4.82;;
35042;SDS011;21230;51.170;17.024;2023-03-08T03:11:39;7.70;;;3.45;;
35042;SDS011;21230;51.170;17.024;2023-03-08T03:14:05;7.32;;;3.95;;
35042;SDS011;21230;51.170;17.024;2023-03-08T03:16:31;9.48;;;4.57;;
35042;SDS011;21230;51.170;17.024;2023-03-08T03:18:57;7.55;;;4.20;;
35042;SDS011;21230;51.170;17.024;2023-03-08T03:21:24;12.70;;;5.25;;
35042;SDS011;21230;51.170;17.024;2023-03-08T03:23:50;12.63;;;5.15;;
35042;SDS011;21230;51.170;17.024;2023-03-08T03:26:19;11.63;;;5.43;;
35042;SDS011;21230;51.170;17.024;2023-03-08T03:28:46;13.82;;;5.38;;
35042;SDS011;21230;51.170;17.024;2023-03-08T03:31:13;7.57;;;5.35;;
35042;SDS011;21230;51.170;17.024;2023-03-08T03:33:41;7.88;;;4.35;;
35042;SDS011;21230;51.170;17.024;2023-03-08T03:36:07;8.02;;;4.53;;
35042;SDS011;21230;51.170;17.024;2023-03-08T03:38:35;8.77;;;4.57;;
35042;SDS011;21230;51.170;17.024;2023-03-08T03:41:02;18.50;;;5.22;;
35042;SDS011;21230;51.170;17.024;2023-03-08T03:43:29;11.75;;;4.80;;
35042;SDS011;21230;51.170;17.024;2023-03-08T03:45:56;7.45;;;4.75;;
35042;SDS011;21230;51.170;17.024;2023-03-08T03:48:23;14.75;;;7.78;;
35042;SDS011;21230;51.170;17.024;2023-03-08T03:50:59;20.63;;;10.15;;
35042;SDS011;21230;51.170;17.024;2023-03-08T03:53:28;13.07;;;7.82;;
35042;SDS011;21230;51.170;17.024;2023-03-08T03:55:55;12.60;;;6.32;;
35042;SDS011;21230;51.170;17.024;2023-03-08T04:01:00;14.32;;;6.05;;
35042;SDS011;21230;51.170;17.024;2023-03-08T04:03:30;10.32;;;4.53;;
35042;SDS011;21230;51.170;17.024;2023-03-08T04:06:03;16.13;;;4.55;;
35042;SDS011;21230;51.170;17.024;2023-03-08T04:08:57;7.55;;;4.07;;
35042;SDS011;21230;51.170;17.024;2023-03-08T04:11:31;18.80;;;4.75;;
35042;SDS011;21230;51.170;17.024;2023-03-08T04:14:02;23.13;;;9.45;;
35042;SDS011;21230;51.170;17.024;2023-03-08T04:16:29;9.93;;;5.60;;
35042;SDS011;21230;51.170;17.024;2023-03-08T04:18:58;11.57;;;4.85;;
35042;SDS011;21230;51.170;17.024;2023-03-08T04:21:26;15.00;;;7.13;;
35042;SDS011;21230;51.170;17.024;2023-03-08T04:23:52;16.15;;;8.70;;
35042;SDS011;21230;51.170;17.024;2023-03-08T04:26:18;12.63;;;5.72;;
35042;SDS011;21230;51.170;17.024;2023-03-08T04:28:45;10.65;;;7.55;;
35042;SDS011;21230;51.170;17.024;2023-03-08T04:33:36;14.57;;;8.50;;
35042;SDS011;21230;51.170;17.024;2023-03-08T04:36:02;16.13;;;5.90;;
35042;SDS011;21230;51.170;17.024;2023-03-08T04:38:29;11.88;;;6.45;;
35042;SDS011;21230;51.170;17.024;2023-03-08T04:40:57;14.60;;;6.07;;
35042;SDS011;21230;51.170;17.024;2023-03-08T04:43:32;11.25;;;5.00;;
35042;SDS011;21230;51.170;17.024;2023-03-08T04:45:59;13.77;;;6.65;;
35042;SDS011;21230;51.170;17.024;2023-03-08T04:48:25;16.77;;;6.18;;
35042;SDS011;21230;51.170;17.024;2023-03-08T04:50:55;17.52;;;6.50;;
35042;SDS011;21230;51.170;17.024;2023-03-08T04:53:23;16.33;;;6.70;;
35042;SDS011;21230;51.170;17.024;2023-03-08T04:55:49;12.73;;;6.57;;
35042;SDS011;21230;51.170;17.024;2023-03-08T04:58:15;10.80;;;6.80;;
35042;SDS011;21230;51.170;17.024;2023-03-08T05:00:42;14.15;;;8.30;;
35042;SDS011;21230;51.170;17.024;2023-03-08T05:03:08;12.45;;;6.70;;
35042;SDS011;21230;51.170;17.024;2023-03-08T05:05:34;15.30;;;7.82;;
35042;SDS011;21230;51.170;17.024;2023-03-08T05:08:00;15.88;;;6.15;;
35042;SDS011;21230;51.170;17.024;2023-03-08T05:10:29;15.18;;;6.43;;
35042;SDS011;21230;51.170;17.024;2023-03-08T05:12:56;13.65;;;6.95;;
35042;SDS011;21230;51.170;17.024;2023-03-08T05:15:22;14.20;;;7.32;;
35042;SDS011;21230;51.170;17.024;2023-03-08T05:17:48;15.45;;;7.13;;
35042;SDS011;21230;51.170;17.024;2023-03-08T05:20:15;17.83;;;9.07;;
35042;SDS011;21230;51.170;17.024;2023-03-08T05:22:42;20.23;;;8.88;;
35042;SDS011;21230;51.170;17.024;2023-03-08T05:25:08;29.75;;;12.70;;
35042;SDS011;21230;51.170;17.024;2023-03-08T05:27:35;25.20;;;12.85;;
35042;SDS011;21230;51.170;17.024;2023-03-08T05:30:01;16.33;;;9.93;;
35042;SDS011;21230;51.170;17.024;2023-03-08T05:32:29;22.90;;;9.55;;
35042;SDS011;21230;51.170;17.024;2023-03-08T05:34:55;19.13;;;9.65;;
35042;SDS011;21230;51.170;17.024;2023-03-08T05:37:21;16.00;;;8.98;;
35042;SDS011;21230;51.170;17.024;2023-03-08T05:39:50;14.50;;;8.65;;
35042;SDS011;21230;51.170;17.024;2023-03-08T05:42:16;20.88;;;9.90;;
35042;SDS011;21230;51.170;17.024;2023-03-08T05:44:43;16.20;;;8.52;;
35042;SDS011;21230;51.170;17.024;2023-03-08T05:47:09;22.38;;;7.47;;
35042;SDS011;21230;51.170;17.024;2023-03-08T05:49:35;24.17;;;12.93;;
35042;SDS011;21230;51.170;17.024;2023-03-08T05:52:01;19.98;;;9.10;;
35042;SDS011;21230;51.170;17.024;2023-03-08T05:54:27;18.13;;;7.40;;
35042;SDS011;21230;51.170;17.024;2023-03-08T05:56:53;18.02;;;7.90;;
35042;SDS011;21230;51.170;17.024;2023-03-08T05:59:18;15.65;;;7.97;;
35042;SDS011;21230;51.170;17.024;2023-03-08T06:01:44;14.20;;;7.65;;
35042;SDS011;21230;51.170;17.024;2023-03-08T06:04:10;17.23;;;8.38;;
35042;SDS011;21230;51.170;17.024;2023-03-08T06:06:36;19.52;;;9.82;;
35042;SDS011;21230;51.170;17.024;2023-03-08T06:09:02;19.05;;;9.65;;
35042;SDS011;21230;51.170;17.024;2023-03-08T06:11:28;31.40;;;8.20;;
35042;SDS011;21230;51.170;17.024;2023-03-08T06:13:54;17.40;;;7.90;;
35042;SDS011;21230;51.170;17.024;2023-03-08T06:16:20;15.90;;;7.93;;
35042;SDS011;21230;51.170;17.024;2023-03-08T06:21:44;17.98;;;9.57;;
35042;SDS011;21230;51.170;17.024;2023-03-08T06:24:10;26.88;;;7.38;;
35042;SDS011;21230;51.170;17.024;2023-03-08T06:26:39;17.33;;;7.80;;
35042;SDS011;21230;51.170;17.024;2023-03-08T06:29:25;17.15;;;7.90;;
35042;SDS011;21230;51.170;17.024;2023-03-08T06:31:51;12.18;;;6.47;;
35042;SDS011;21230;51.170;17.024;2023-03-08T06:34:17;37.30;;;15.88;;
35042;SDS011;21230;51.170;17.024;2023-03-08T06:36:43;25.75;;;11.90;;
35042;SDS011;21230;51.170;17.024;2023-03-08T06:39:08;33.13;;;12.65;;
35042;SDS011;21230;51.170;17.024;2023-03-08T06:41:34;29.15;;;18.00;;
35042;SDS011;21230;51.170;17.024;2023-03-08T06:44:00;13.75;;;8.23;;
35042;SDS011;21230;51.170;17.024;2023-03-08T06:46:26;18.20;;;8.50;;
35042;SDS011;21230;51.170;17.024;2023-03-08T06:48:52;19.17;;;8.70;;
35042;SDS011;21230;51.170;17.024;2023-03-08T06:51:18;18.85;;;8.43;;
35042;SDS011;21230;51.170;17.024;2023-03-08T06:53:45;14.55;;;6.72;;
35042;SDS011;21230;51.170;17.024;2023-03-08T06:56:12;15.75;;;11.10;;
35042;SDS011;21230;51.170;17.024;2023-03-08T06:58:39;15.25;;;8.93;;
35042;SDS011;21230;51.170;17.024;2023-03-08T07:01:05;35.63;;;21.45;;
35042;SDS011;21230;51.170;17.024;2023-03-08T07:03:33;23.50;;;9.88;;
35042;SDS011;21230;51.170;17.024;2023-03-08T07:06:00;12.75;;;6.30;;
35042;SDS011;21230;51.170;17.024;2023-03-08T07:08:28;13.02;;;7.45;;
35042;SDS011;21230;51.170;17.024;2023-03-08T07:10:55;15.25;;;6.45;;
35042;SDS011;21230;51.170;17.024;2023-03-08T07:13:26;12.52;;;5.53;;
35042;SDS011;21230;51.170;17.024;2023-03-08T07:15:56;18.25;;;5.72;;
35042;SDS011;21230;51.170;17.024;2023-03-08T07:18:25;19.00;;;8.10;;
35042;SDS011;21230;51.170;17.024;2023-03-08T07:21:00;14.82;;;7.85;;
35042;SDS011;21230;51.170;17.024;2023-03-08T07:23:31;13.88;;;9.02;;
35042;SDS011;21230;51.170;17.024;2023-03-08T07:25:58;14.15;;;7.38;;
35042;SDS011;21230;51.170;17.024;2023-03-08T07:28:24;14.55;;;8.48;;
35042;SDS011;21230;51.170;17.024;2023-03-08T07:30:51;8.38;;;4.80;;
35042;SDS011;21230;51.170;17.024;2023-03-08T07:33:18;25.45;;;5.90;;
35042;SDS011;21230;51.170;17.024;2023-03-08T07:35:48;12.48;;;6.28;;
35042;SDS011;21230;51.170;17.024;2023-03-08T07:38:15;10.45;;;6.25;;
35042;SDS011;21230;51.170;17.024;2023-03-08T07:40:42;9.02;;;5.57;;
35042;SDS011;21230;51.170;17.024;2023-03-08T07:43:09;11.27;;;7.00;;
35042;SDS011;21230;51.170;17.024;2023-03-08T07:45:36;10.73;;;7.18;;
35042;SDS011;21230;51.170;17.024;2023-03-08T07:48:04;12.63;;;6.75;;
35042;SDS011;21230;51.170;17.024;2023-03-08T07:50:32;10.48;;;4.97;;
35042;SDS011;21230;51.170;17.024;2023-03-08T07:53:01;14.15;;;5.85;;
35042;SDS011;21230;51.170;17.024;2023-03-08T07:55:30;9.98;;;5.70;;
35042;SDS011;21230;51.170;17.024;2023-03-08T07:58:06;11.80;;;6.65;;
35042;SDS011;21230;51.170;17.024;2023-03-08T08:00:33;40.53;;;13.93;;
35042;SDS011;21230;51.170;17.024;2023-03-08T08:03:01;40.08;;;19.13;;
35042;SDS011;21230;51.170;17.024;2023-03-08T08:05:28;26.17;;;8.93;;
35042;SDS011;21230;51.170;17.024;2023-03-08T08:07:54;25.92;;;15.85;;
35042;SDS011;21230;51.170;17.024;2023-03-08T08:10:20;13.75;;;7.25;;
35042;SDS011;21230;51.170;17.024;2023-03-08T08:12:46;9.70;;;6.03;;
35042;SDS011;21230;51.170;17.024;2023-03-08T08:15:12;13.02;;;5.65;;
35042;SDS011;21230;51.170;17.024;2023-03-08T08:17:40;10.40;;;5.28;;
35042;SDS011;21230;51.170;17.024;2023-03-08T08:20:06;10.45;;;5.93;;
35042;SDS011;21230;51.170;17.024;2023-03-08T08:22:36;13.50;;;5.28;;
35042;SDS011;21230;51.170;17.024;2023-03-08T08:25:06;11.75;;;6.53;;
35042;SDS011;21230;51.170;17.024;2023-03-08T08:27:40;10.00;;;5.63;;
35042;SDS011;21230;51.170;17.024;2023-03-08T08:30:07;12.82;;;5.90;;
35042;SDS011;21230;51.170;17.024;2023-03-08T08:32:35;11.50;;;6.03;;
35042;SDS011;21230;51.170;17.024;2023-03-08T08:35:00;21.17;;;6.32;;
35042;SDS011;21230;51.170;17.024;2023-03-08T08:37:30;16.08;;;6.28;;
35042;SDS011;21230;51.170;17.024;2023-03-08T08:40:07;16.50;;;10.73;;
35042;SDS011;21230;51.170;17.024;2023-03-08T08:42:35;14.50;;;8.73;;
35042;SDS011;21230;51.170;17.024;2023-03-08T08:45:01;9.20;;;5.28;;
35042;SDS011;21230;51.170;17.024;2023-03-08T08:47:28;8.75;;;4.95;;
35042;SDS011;21230;51.170;17.024;2023-03-08T08:49:55;11.25;;;6.25;;
35042;SDS011;21230;51.170;17.024;2023-03-08T08:52:24;15.55;;;8.60;;
35042;SDS011;21230;51.170;17.024;2023-03-08T08:54:51;12.02;;;6.93;;
35042;SDS011;21230;51.170;17.024;2023-03-08T08:57:26;17.27;;;11.25;;
35042;SDS011;21230;51.170;17.024;2023-03-08T08:59:52;17.33;;;8.95;;
35042;SDS011;21230;51.170;17.024;2023-03-08T09:02:18;13.48;;;8.80;;
35042;SDS011;21230;51.170;17.024;2023-03-08T09:04:45;11.50;;;6.70;;
35042;SDS011;21230;51.170;17.024;2023-03-08T17:15:39;42.05;;;19.30;;
35042;SDS011;21230;51.170;17.024;2023-03-08T17:18:12;51.13;;;20.43;;
35042;SDS011;21230;51.170;17.024;2023-03-08T17:20:42;35.85;;;19.35;;
35042;SDS011;21230;51.170;17.024;2023-03-08T17:23:10;38.50;;;20.50;;
35042;SDS011;21230;51.170;17.024;2023-03-08T17:25:37;38.90;;;18.05;;
35042;SDS011;21230;51.170;17.024;2023-03-08T17:28:07;42.05;;;18.20;;
35042;SDS011;21230;51.170;17.024;2023-03-08T17:30:35;38.80;;;18.40;;
35042;SDS011;21230;51.170;17.024;2023-03-08T17:33:15;42.38;;;17.52;;
35042;SDS011;21230;51.170;17.024;2023-03-08T17:36:11;40.05;;;19.92;;
35042;SDS011;21230;51.170;17.024;2023-03-08T17:38:43;33.25;;;16.50;;
35042;SDS011;21230;51.170;17.024;2023-03-08T17:41:28;27.10;;;15.63;;
35042;SDS011;21230;51.170;17.024;2023-03-08T17:43:58;32.25;;;16.92;;
35042;SDS011;21230;51.170;17.024;2023-03-08T17:49:00;32.17;;;18.40;;
35042;SDS011;21230;51.170;17.024;2023-03-08T17:51:28;35.58;;;17.33;;
35042;SDS011;21230;51.170;17.024;2023-03-08T17:57:21;37.17;;;18.63;;
35042;SDS011;21230;51.170;17.024;2023-03-08T17:59:58;37.95;;;19.23;;
35042;SDS011;21230;51.170;17.024;2023-03-08T18:02:27;34.10;;;18.00;;
35042;SDS011;21230;51.170;17.024;2023-03-08T18:04:53;32.58;;;17.60;;
35042;SDS011;21230;51.170;17.024;2023-03-08T18:07:20;36.63;;;19.15;;
35042;SDS011;21230;51.170;17.024;2023-03-08T18:09:51;45.22;;;21.80;;
35042;SDS011;21230;51.170;17.024;2023-03-08T18:12:17;43.60;;;20.33;;
35042;SDS011;21230;51.170;17.024;2023-03-08T18:14:44;45.03;;;21.02;;
35042;SDS011;21230;51.170;17.024;2023-03-08T18:17:11;39.40;;;19.83;;
35042;SDS011;21230;51.170;17.024;2023-03-08T18:19:39;39.92;;;20.23;;
35042;SDS011;21230;51.170;17.024;2023-03-08T18:22:08;39.80;;;19.40;;
35042;SDS011;21230;51.170;17.024;2023-03-08T18:24:34;34.13;;;18.10;;
35042;SDS011;21230;51.170;17.024;2023-03-08T18:27:00;43.92;;;19.75;;
35042;SDS011;21230;51.170;17.024;2023-03-08T18:29:30;38.70;;;20.73;;
35042;SDS011;21230;51.170;17.024;2023-03-08T18:32:02;37.05;;;20.20;;
35042;SDS011;21230;51.170;17.024;2023-03-08T18:34:29;40.83;;;19.52;;
35042;SDS011;21230;51.170;17.024;2023-03-08T18:36:55;37.78;;;19.15;;
35042;SDS011;21230;51.170;17.024;2023-03-08T18:39:25;47.30;;;19.85;;
35042;SDS011;21230;51.170;17.024;2023-03-08T18:41:54;42.05;;;22.48;;
35042;SDS011;21230;51.170;17.024;2023-03-08T18:44:22;36.80;;;21.75;;
35042;SDS011;21230;51.170;17.024;2023-03-08T18:46:48;45.50;;;23.35;;
35042;SDS011;21230;51.170;17.024;2023-03-08T18:49:14;43.08;;;22.70;;
35042;SDS011;21230;51.170;17.024;2023-03-08T18:51:41;46.00;;;23.00;;
35042;SDS011;21230;51.170;17.024;2023-03-08T18:54:12;43.78;;;24.52;;
35042;SDS011;21230;51.170;17.024;2023-03-08T18:56:45;45.50;;;22.88;;
35042;SDS011;21230;51.170;17.024;2023-03-08T18:59:18;51.75;;;26.05;;
35042;SDS011;21230;51.170;17.024;2023-03-08T19:01:45;45.65;;;23.65;;
35042;SDS011;21230;51.170;17.024;2023-03-08T19:04:14;50.43;;;24.87;;
35042;SDS011;21230;51.170;17.024;2023-03-08T19:06:41;48.60;;;23.15;;
35042;SDS011;21230;51.170;17.024;2023-03-08T19:09:09;44.88;;;24.75;;
35042;SDS011;21230;51.170;17.024;2023-03-08T19:11:38;48.45;;;25.52;;
35042;SDS011;21230;51.170;17.024;2023-03-08T19:14:06;42.45;;;23.27;;
35042;SDS011;21230;51.170;17.024;2023-03-08T19:16:34;60.00;;;25.02;;
35042;SDS011;21230;51.170;17.024;2023-03-08T19:19:02;47.65;;;25.27;;
35042;SDS011;21230;51.170;17.024;2023-03-08T19:21:38;43.95;;;23.33;;
35042;SDS011;21230;51.170;17.024;2023-03-08T19:24:06;44.85;;;22.08;;
35042;SDS011;21230;51.170;17.024;2023-03-08T19:26:34;48.88;;;23.13;;
35042;SDS011;21230;51.170;17.024;2023-03-08T19:31:57;55.25;;;23.88;;
35042;SDS011;21230;51.170;17.024;2023-03-08T19:34:38;58.88;;;27.02;;
35042;SDS011;21230;51.170;17.024;2023-03-08T19:37:06;53.30;;;26.38;;
35042;SDS011;21230;51.170;17.024;2023-03-08T19:39:35;60.10;;;30.75;;
35042;SDS011;21230;51.170;17.024;2023-03-08T19:42:03;65.00;;;29.67;;
35042;SDS011;21230;51.170;17.024;2023-03-08T19:44:32;60.70;;;31.95;;
35042;SDS011;21230;51.170;17.024;2023-03-08T19:46:59;44.25;;;24.90;;
35042;SDS011;21230;51.170;17.024;2023-03-08T19:49:33;44.53;;;24.67;;
35042;SDS011;21230;51.170;17.024;2023-03-08T19:52:03;47.10;;;24.75;;
35042;SDS011;21230;51.170;17.024;2023-03-08T19:56:58;43.58;;;23.23;;
35042;SDS011;21230;51.170;17.024;2023-03-08T19:59:25;45.45;;;23.10;;
35042;SDS011;21230;51.170;17.024;2023-03-08T20:01:53;44.00;;;23.60;;
35042;SDS011;21230;51.170;17.024;2023-03-08T20:04:20;44.20;;;22.77;;
35042;SDS011;21230;51.170;17.024;2023-03-08T20:06:49;51.47;;;24.77;;
35042;SDS011;21230;51.170;17.024;2023-03-08T20:09:17;49.20;;;23.48;;
35042;SDS011;21230;51.170;17.024;2023-03-08T20:11:48;44.97;;;24.65;;
35042;SDS011;21230;51.170;17.024;2023-03-08T20:14:19;46.28;;;23.38;;
35042;SDS011;21230;51.170;17.024;2023-03-08T20:16:48;44.78;;;23.27;;
35042;SDS011;21230;51.170;17.024;2023-03-08T20:19:17;52.00;;;22.88;;
35042;SDS011;21230;51.170;17.024;2023-03-08T20:21:45;48.63;;;22.60;;
35042;SDS011;21230;51.170;17.024;2023-03-08T20:24:15;47.60;;;23.33;;
35042;SDS011;21230;51.170;17.024;2023-03-08T20:26:56;47.10;;;23.38;;
35042;SDS011;21230;51.170;17.024;2023-03-08T20:29:32;44.63;;;21.95;;
35042;SDS011;21230;51.170;17.024;2023-03-08T20:35:29;43.92;;;24.55;;
35042;SDS011;21230;51.170;17.024;2023-03-08T20:38:03;48.80;;;25.52;;
35042;SDS011;21230;51.170;17.024;2023-03-08T20:41:29;50.05;;;23.75;;
35042;SDS011;21230;51.170;17.024;2023-03-08T20:44:40;49.28;;;24.83;;
35042;SDS011;21230;51.170;17.024;2023-03-08T20:47:08;47.47;;;24.55;;
35042;SDS011;21230;51.170;17.024;2023-03-08T20:49:54;43.35;;;25.52;;
35042;SDS011;21230;51.170;17.024;2023-03-08T20:56:08;42.50;;;22.95;;
35042;SDS011;21230;51.170;17.024;2023-03-08T20:59:12;47.42;;;23.73;;
35042;SDS011;21230;51.170;17.024;2023-03-08T21:07:59;51.92;;;23.95;;
35042;SDS011;21230;51.170;17.024;2023-03-08T21:22:11;48.42;;;24.30;;
35042;SDS011;21230;51.170;17.024;2023-03-08T21:24:43;47.78;;;23.48;;
35042;SDS011;21230;51.170;17.024;2023-03-08T21:27:10;49.45;;;23.70;;
35042;SDS011;21230;51.170;17.024;2023-03-08T21:29:53;53.65;;;26.92;;
35042;SDS011;21230;51.170;17.024;2023-03-08T21:32:21;49.53;;;26.60;;
35042;SDS011;21230;51.170;17.024;2023-03-08T21:37:42;65.38;;;29.55;;
35042;SDS011;21230;51.170;17.024;2023-03-08T21:51:35;58.50;;;28.83;;
35042;SDS011;21230;51.170;17.024;2023-03-08T21:54:25;60.90;;;31.40;;
35042;SDS011;21230;51.170;17.024;2023-03-08T21:57:21;58.47;;;26.27;;
35042;SDS011;21230;51.170;17.024;2023-03-08T21:59:55;58.83;;;29.48;;
35042;SDS011;21230;51.170;17.024;2023-03-08T22:02:57;59.25;;;30.67;;
35042;SDS011;21230;51.170;17.024;2023-03-08T22:05:24;56.55;;;30.67;;
35042;SDS011;21230;51.170;17.024;2023-03-08T22:07:50;55.90;;;27.90;;
35042;SDS011;21230;51.170;17.024;2023-03-08T22:10:16;58.70;;;30.70;;
35042;SDS011;21230;51.170;17.024;2023-03-08T22:12:44;56.10;;;28.85;;
35042;SDS011;21230;51.170;17.024;2023-03-08T22:15:11;57.80;;;29.13;;
35042;SDS011;21230;51.170;17.024;2023-03-08T22:22:47;48.38;;;28.13;;
35042;SDS011;21230;51.170;17.024;2023-03-08T22:33:06;55.92;;;26.95;;
35042;SDS011;21230;51.170;17.024;2023-03-08T22:38:04;46.75;;;23.38;;
35042;SDS011;21230;51.170;17.024;2023-03-08T22:41:11;45.00;;;23.50;;
35042;SDS011;21230;51.170;17.024;2023-03-08T22:43:39;45.55;;;25.70;;
35042;SDS011;21230;51.170;17.024;2023-03-08T22:46:10;54.53;;;25.98;;
35042;SDS011;21230;51.170;17.024;2023-03-08T22:48:40;46.13;;;26.70;;
35042;SDS011;21230;51.170;17.024;2023-03-08T22:56:22;50.85;;;26.95;;
35042;SDS011;21230;51.170;17.024;2023-03-08T22:58:54;66.22;;;29.40;;
35042;SDS011;21230;51.170;17.024;2023-03-08T23:01:21;63.97;;;30.20;;
35042;SDS011;21230;51.170;17.024;2023-03-08T23:03:49;56.75;;;28.13;;
35042;SDS011;21230;51.170;17.024;2023-03-08T23:06:37;58.63;;;28.38;;
35042;SDS011;21230;51.170;17.024;2023-03-08T23:22:37;59.58;;;29.23;;
35042;SDS011;21230;51.170;17.024;2023-03-08T23:35:50;61.15;;;28.63;;
35042;SDS011;21230;51.170;17.024;2023-03-08T23:48:43;53.72;;;26.98;;
35042;SDS011;21230;51.170;17.024;2023-03-08T23:58:56;54.83;;;27.65;;
